createdAt,value
2018-02-24T00:04:44.352Z,11.60
2018-02-24T00:14:53.305Z,11.07
2018-02-24T00:25:05.179Z,11.57
2018-02-24T00:35:14.425Z,12.10
2018-02-24T00:45:24.046Z,11.03
2018-02-24T00:55:33.240Z,11.30
2018-02-24T01:05:41.939Z,11.90
2018-02-24T01:15:51.181Z,10.97
2018-02-24T01:26:00.878Z,10.63
2018-02-24T01:36:15.647Z,10.60
2018-02-24T01:56:32.038Z,10.77
2018-02-24T02:06:41.370Z,11.13
2018-02-24T02:16:49.288Z,11.83
2018-02-24T02:26:59.406Z,11.13
2018-02-24T02:37:11.803Z,11.27
2018-02-24T02:47:20.832Z,11.07
2018-02-24T02:57:30.831Z,12.00
2018-02-24T03:07:40.113Z,11.70
2018-02-24T03:17:49.011Z,12.20
2018-02-24T03:27:57.551Z,12.10
2018-02-24T03:38:08.512Z,12.87
2018-02-24T03:48:17.799Z,13.30
2018-02-24T03:58:28.280Z,13.50
2018-02-24T04:08:36.717Z,13.90
2018-02-24T04:18:47.546Z,16.00
2018-02-24T04:28:55.664Z,14.00
2018-02-24T04:39:06.118Z,13.50
2018-02-24T04:49:16.887Z,13.23
2018-02-24T04:59:28.186Z,12.53
2018-02-24T05:09:37.273Z,12.23
2018-02-24T05:19:46.710Z,11.80
2018-02-24T05:29:58.487Z,11.73
2018-02-24T05:40:09.677Z,12.60
2018-02-24T05:50:18.949Z,11.50
2018-02-24T06:00:29.568Z,13.50
2018-02-24T06:10:49.497Z,11.60
2018-02-24T06:21:00.046Z,11.80
2018-02-24T06:31:12.290Z,11.53
2018-02-24T06:41:22.670Z,11.70
2018-02-24T06:51:33.663Z,10.63
2018-02-24T07:01:42.863Z,10.63
2018-02-24T07:11:51.032Z,10.83
2018-02-24T07:22:05.761Z,10.73
2018-02-24T07:32:15.900Z,11.00
2018-02-24T07:42:25.197Z,10.40
2018-02-24T07:52:35.794Z,10.30
2018-02-24T08:02:44.284Z,10.90
2018-02-24T08:12:53.290Z,10.93
2018-02-24T08:23:04.725Z,10.83
2018-02-24T08:33:13.742Z,10.20
2018-02-24T08:43:22.528Z,10.70
2018-02-24T08:53:32.282Z,11.20
2018-02-24T09:03:45.034Z,11.73
2018-02-24T09:13:54.400Z,11.27
2018-02-24T09:24:06.052Z,13.03
2018-02-24T09:34:17.129Z,14.50
2018-02-24T09:44:27.370Z,13.90
2018-02-24T09:54:36.418Z,13.97
2018-02-24T10:04:44.607Z,14.13
2018-02-24T10:14:53.815Z,13.03
2018-02-24T10:25:05.119Z,12.70
2018-02-24T10:35:14.738Z,12.50
2018-02-24T10:45:23.660Z,12.47
2018-02-24T10:55:33.185Z,11.93
2018-02-24T11:05:42.700Z,11.07
2018-02-24T11:15:51.520Z,11.93
2018-02-24T11:26:02.229Z,11.57
2018-02-24T11:36:12.863Z,11.27
2018-02-24T11:46:22.031Z,10.50
2018-02-24T11:56:33.448Z,10.83
2018-02-24T12:06:43.985Z,10.70
2018-02-24T12:16:59.552Z,9.90
2018-02-24T12:27:09.356Z,9.97
2018-02-24T12:37:18.975Z,9.17
2018-02-24T12:47:28.936Z,9.80
2018-02-24T12:57:37.429Z,9.50
2018-02-24T13:07:49.432Z,9.60
2018-02-24T13:18:01.478Z,9.17
2018-02-24T13:28:11.064Z,9.10
2018-02-24T13:38:20.378Z,9.00
2018-02-24T13:48:33.938Z,9.30
2018-02-24T13:58:45.235Z,9.20
2018-02-24T14:08:55.376Z,9.20
2018-02-24T14:19:08.283Z,8.60
2018-02-24T14:29:18.845Z,8.73
2018-02-24T14:39:28.126Z,8.17
2018-02-24T14:49:38.006Z,8.33
2018-02-24T14:59:47.021Z,8.77
2018-02-24T15:09:57.753Z,8.87
2018-02-24T15:20:07.266Z,8.23
2018-02-24T15:30:17.717Z,8.30
2018-02-24T15:40:27.591Z,7.93
2018-02-24T15:50:36.232Z,8.00
2018-02-24T16:00:45.806Z,8.10
2018-02-24T16:10:59.964Z,7.20
2018-02-24T16:21:08.673Z,7.60
2018-02-24T16:31:24.317Z,7.50
2018-02-24T16:41:36.450Z,6.83
2018-02-24T16:51:44.480Z,6.90
2018-02-24T17:01:59.258Z,6.87
2018-02-24T17:12:10.271Z,6.90
2018-02-24T17:22:18.360Z,6.53
2018-02-24T17:32:27.809Z,6.67
2018-02-24T17:42:37.052Z,6.53
2018-02-24T17:52:49.248Z,6.57
2018-02-24T18:03:01.205Z,7.17
2018-02-24T18:13:10.626Z,6.17
2018-02-24T18:23:21.542Z,6.27
2018-02-24T18:33:30.063Z,6.50
2018-02-24T18:43:38.801Z,6.60
2018-02-24T18:53:51.209Z,6.30
2018-02-24T19:03:59.629Z,6.03
2018-02-24T19:14:13.216Z,6.20
2018-02-24T19:24:22.117Z,6.60
2018-02-24T19:34:30.790Z,6.17
2018-02-24T19:44:41.216Z,5.70
2018-02-24T19:54:51.837Z,5.87
2018-02-24T20:05:01.454Z,6.40
2018-02-24T20:15:12.151Z,6.33
2018-02-24T20:25:20.482Z,5.80
2018-02-24T20:35:32.015Z,6.30
2018-02-24T20:45:43.678Z,6.00
2018-02-24T21:27:05.298Z,6.30
2018-02-24T21:37:13.240Z,6.37
2018-02-24T21:47:22.747Z,6.03
2018-02-24T21:57:32.799Z,6.20
2018-02-24T22:07:41.516Z,6.10
2018-02-24T22:17:53.226Z,6.10
2018-02-24T22:28:05.753Z,5.80
2018-02-24T22:38:14.223Z,5.87
2018-02-24T22:48:30.256Z,5.93
2018-02-24T22:58:46.945Z,5.90
2018-02-24T23:08:57.049Z,5.80
2018-02-24T23:19:06.214Z,5.87
2018-02-24T23:29:15.718Z,5.90
2018-02-24T23:39:24.302Z,5.63
2018-02-24T23:49:33.070Z,5.60
2018-02-24T23:59:42.724Z,5.87
